Troviken — C6ZT9 — position and weather

sailwx.info

Track history (hours):
 
Tides and Currents Weather Stations Pressure Air Temp Water Temp Dewpoint Dewpoint Depression Visibility Wind Speed Wind Dir Waves Ship Positions

Troviken

Last reported at 2015-Aug-09 09:19 UTC. Time now 2015-Sep-03 10:57 UTC.
Position N 38°27' W 074°43'.
Warning: this ship's position is 25 days out of date.

Length 250 m; draft 8.2 m.

Type: Ship. MMSI: 311066200.

Date/timePositionNaut miles runAvg speedWind from/ knotsBaromVisibWave heightAir tempDewpointWater temp
2015-Aug-09 09:19N 38°27' W 074°43'1013.0
2015-Aug-09 08:34N 38°35' W 074°51'1312.6
2015-Aug-09 07:33N 38°45' W 075°00'10 9.5
2015-Aug-09 06:33N 38°53' W 075°06'1212.1
2015-Aug-09 05:33N 39°05' W 075°11'1413.6
2015-Aug-09 04:33N 39°16' W 075°21'1515.0
2015-Aug-09 03:34N 39°27' W 075°34'1212.2
2015-Aug-09 02:33N 39°40' W 075°32'1110.8
2015-Aug-09 01:33N 39°49' W 075°25'7 6.7
2015-Aug-09 00:34N 39°51' W 075°16'0 0.1
2015-Aug-08 23:32N 39°51' W 075°16'0 0.0
2015-Aug-08 22:32N 39°51' W 075°16'0 0.0
2015-Aug-08 21:32N 39°51' W 075°16'0 0.0
2015-Aug-08 20:32N 39°51' W 075°16'0 0.0
2015-Aug-08 19:32N 39°51' W 075°16'0 0.0
2015-Aug-08 18:32N 39°51' W 075°16'0 0.0
2015-Aug-08 17:32N 39°51' W 075°16'0 0.0
2015-Aug-08 16:32N 39°51' W 075°16'0 0.0
2015-Aug-08 15:32N 39°51' W 075°16'0 0.0
2015-Aug-08 14:32N 39°51' W 075°16'0 0.0
2015-Aug-08 13:32N 39°51' W 075°16'0 0.0
2015-Aug-08 12:32N 39°51' W 075°16'0 0.0
2015-Aug-08 11:32N 39°51' W 075°16'0 0.0
2015-Aug-08 10:32N 39°51' W 075°16'0 0.0
2015-Aug-08 09:32N 39°51' W 075°16'0 0.0
2015-Aug-08 08:32N 39°51' W 075°16'0 0.0
2015-Aug-08 07:32N 39°51' W 075°16'0 0.0
2015-Aug-08 06:32N 39°51' W 075°16'0 0.0
2015-Aug-08 05:32N 39°51' W 075°16'0 0.0
2015-Aug-08 04:32N 39°51' W 075°16'0 0.0
2015-Aug-08 03:32N 39°51' W 075°16'0 0.0
2015-Aug-08 02:33N 39°51' W 075°16'3 2.7
2015-Aug-08 01:33N 39°51' W 075°20'8 8.3
2015-Aug-08 00:34N 39°46' W 075°28'10 9.8
2015-Aug-07 23:34N 39°37' W 075°35'1111.0
2015-Aug-07 22:33N 39°27' W 075°33'1212.4
2015-Aug-07 21:33N 39°17' W 075°22'1212.0
2015-Aug-07 20:34N 39°08' W 075°13'1211.4
2015-Aug-07 19:33N 38°57' W 075°07'1110.8
2015-Aug-07 18:33N 38°47' W 075°02'6 6.4
2015-Aug-07 17:33N 38°44' W 074°55'6 6.4
2015-Aug-07 16:33N 38°39' W 074°50'1210.0
2015-Aug-07 15:24N 38°30' W 074°41'0 0.2
2015-Aug-07 13:22N 38°30' W 074°41'4 4.5
2015-Aug-07 12:27N 38°28' W 074°36'23911.7
2015-Aug-06 16:05N 34°30' W 075°05'8514.3
2015-Aug-06 10:08N 33°17' W 075°57'42413.8
2015-Aug-05 03:29N 27°02' W 079°46'2116.7
2015-Aug-05 02:12N 26°41' W 079°48'1015.9
2015-Aug-05 01:33N 26°31' W 079°49'1616.0
2015-Aug-05 00:33N 26°15' W 079°50'1616.2
2015-Aug-04 23:33N 25°59' W 079°52'1616.3
2015-Aug-04 22:33N 25°43' W 079°54'1616.1
2015-Aug-04 21:33N 25°26' W 079°55'  
Track history (hours):
 
Tides and Currents Weather Stations Pressure Air Temp Water Temp Dewpoint Dewpoint Depression Visibility Wind Speed Wind Dir Waves Ship Positions

Troviken

Last reported at 2015-Aug-09 09:19 UTC. Time now 2015-Sep-03 10:57 UTC.
Position N 38°27' W 074°43'.
Warning: this ship's position is 25 days out of date.

Length 250 m; draft 8.2 m.

Type: Ship. MMSI: 311066200.

Date/timePositionNaut miles runAvg speedWind from/ knotsBaromVisibWave heightAir tempDewpointWater temp
2015-Aug-09 09:19N 38°27' W 074°43'1013.0
2015-Aug-09 08:34N 38°35' W 074°51'1312.6
2015-Aug-09 07:33N 38°45' W 075°00'10 9.5
2015-Aug-09 06:33N 38°53' W 075°06'1212.1
2015-Aug-09 05:33N 39°05' W 075°11'1413.6
2015-Aug-09 04:33N 39°16' W 075°21'1515.0
2015-Aug-09 03:34N 39°27' W 075°34'1212.2
2015-Aug-09 02:33N 39°40' W 075°32'1110.8
2015-Aug-09 01:33N 39°49' W 075°25'7 6.7
2015-Aug-09 00:34N 39°51' W 075°16'0 0.1
2015-Aug-08 23:32N 39°51' W 075°16'0 0.0
2015-Aug-08 22:32N 39°51' W 075°16'0 0.0
2015-Aug-08 21:32N 39°51' W 075°16'0 0.0
2015-Aug-08 20:32N 39°51' W 075°16'0 0.0
2015-Aug-08 19:32N 39°51' W 075°16'0 0.0
2015-Aug-08 18:32N 39°51' W 075°16'0 0.0
2015-Aug-08 17:32N 39°51' W 075°16'0 0.0
2015-Aug-08 16:32N 39°51' W 075°16'0 0.0
2015-Aug-08 15:32N 39°51' W 075°16'0 0.0
2015-Aug-08 14:32N 39°51' W 075°16'0 0.0
2015-Aug-08 13:32N 39°51' W 075°16'0 0.0
2015-Aug-08 12:32N 39°51' W 075°16'0 0.0
2015-Aug-08 11:32N 39°51' W 075°16'0 0.0
2015-Aug-08 10:32N 39°51' W 075°16'0 0.0
2015-Aug-08 09:32N 39°51' W 075°16'0 0.0
2015-Aug-08 08:32N 39°51' W 075°16'0 0.0
2015-Aug-08 07:32N 39°51' W 075°16'0 0.0
2015-Aug-08 06:32N 39°51' W 075°16'0 0.0
2015-Aug-08 05:32N 39°51' W 075°16'0 0.0
2015-Aug-08 04:32N 39°51' W 075°16'0 0.0
2015-Aug-08 03:32N 39°51' W 075°16'0 0.0
2015-Aug-08 02:33N 39°51' W 075°16'3 2.7
2015-Aug-08 01:33N 39°51' W 075°20'8 8.3
2015-Aug-08 00:34N 39°46' W 075°28'10 9.8
2015-Aug-07 23:34N 39°37' W 075°35'1111.0
2015-Aug-07 22:33N 39°27' W 075°33'1212.4
2015-Aug-07 21:33N 39°17' W 075°22'1212.0
2015-Aug-07 20:34N 39°08' W 075°13'1211.4
2015-Aug-07 19:33N 38°57' W 075°07'1110.8
2015-Aug-07 18:33N 38°47' W 075°02'6 6.4
2015-Aug-07 17:33N 38°44' W 074°55'6 6.4
2015-Aug-07 16:33N 38°39' W 074°50'1210.0
2015-Aug-07 15:24N 38°30' W 074°41'0 0.2
2015-Aug-07 13:22N 38°30' W 074°41'4 4.5
2015-Aug-07 12:27N 38°28' W 074°36'23911.7
2015-Aug-06 16:05N 34°30' W 075°05'8514.3
2015-Aug-06 10:08N 33°17' W 075°57'42413.8
2015-Aug-05 03:29N 27°02' W 079°46'2116.7
2015-Aug-05 02:12N 26°41' W 079°48'1015.9
2015-Aug-05 01:33N 26°31' W 079°49'1616.0
2015-Aug-05 00:33N 26°15' W 079°50'1616.2
2015-Aug-04 23:33N 25°59' W 079°52'1616.3
2015-Aug-04 22:33N 25°43' W 079°54'1616.1
2015-Aug-04 21:33N 25°26' W 079°55'  

Dump ship's entire track history